sensor_id;sensor_type;location;lat;lon;timestamp;temperature;humidity
61201;DHT22;47065;52.898;6.992;2024-02-28T00:00:03;2.10;99.90
61201;DHT22;47065;52.898;6.992;2024-02-28T00:02:29;2.10;99.90
61201;DHT22;47065;52.898;6.992;2024-02-28T00:04:55;2.00;99.90
61201;DHT22;47065;52.898;6.992;2024-02-28T00:07:23;2.10;99.90
61201;DHT22;47065;52.898;6.992;2024-02-28T00:09:49;2.10;99.90
61201;DHT22;47065;52.898;6.992;2024-02-28T00:12:17;2.10;99.90
61201;DHT22;47065;52.898;6.992;2024-02-28T00:14:43;2.00;99.90
61201;DHT22;47065;52.898;6.992;2024-02-28T00:17:08;2.00;99.90
61201;DHT22;47065;52.898;6.992;2024-02-28T00:19:34;2.10;99.90
61201;DHT22;47065;52.898;6.992;2024-02-28T00:22:00;2.10;99.90
61201;DHT22;47065;52.898;6.992;2024-02-28T00:24:26;1.90;99.90
61201;DHT22;47065;52.898;6.992;2024-02-28T00:26:52;2.10;99.90
61201;DHT22;47065;52.898;6.992;2024-02-28T00:29:18;2.00;99.90
61201;DHT22;47065;52.898;6.992;2024-02-28T00:31:43;2.00;99.90
61201;DHT22;47065;52.898;6.992;2024-02-28T00:34:09;2.00;99.90
61201;DHT22;47065;52.898;6.992;2024-02-28T00:36:38;2.10;99.90
61201;DHT22;47065;52.898;6.992;2024-02-28T00:39:04;2.10;99.90
61201;DHT22;47065;52.898;6.992;2024-02-28T00:41:29;2.00;99.90
61201;DHT22;47065;52.898;6.992;2024-02-28T00:43:55;2.00;99.90
61201;DHT22;47065;52.898;6.992;2024-02-28T00:46:21;2.00;99.90
61201;DHT22;47065;52.898;6.992;2024-02-28T00:48:46;2.00;99.90
61201;DHT22;47065;52.898;6.992;2024-02-28T00:51:12;2.00;99.90
61201;DHT22;47065;52.898;6.992;2024-02-28T00:53:38;2.10;99.90
61201;DHT22;47065;52.898;6.992;2024-02-28T00:56:07;2.00;99.90
61201;DHT22;47065;52.898;6.992;2024-02-28T00:58:32;2.00;99.90
61201;DHT22;47065;52.898;6.992;2024-02-28T01:00:58;2.00;99.90
61201;DHT22;47065;52.898;6.992;2024-02-28T01:03:24;2.00;99.90
61201;DHT22;47065;52.898;6.992;2024-02-28T01:05:52;2.00;99.90
61201;DHT22;47065;52.898;6.992;2024-02-28T01:08:18;2.00;99.90
61201;DHT22;47065;52.898;6.992;2024-02-28T01:10:45;1.90;99.90
61201;DHT22;47065;52.898;6.992;2024-02-28T01:13:11;1.90;99.90
61201;DHT22;47065;52.898;6.992;2024-02-28T01:15:37;1.90;99.90
61201;DHT22;47065;52.898;6.992;2024-02-28T01:18:04;1.90;99.90
61201;DHT22;47065;52.898;6.992;2024-02-28T01:20:30;1.90;99.90
61201;DHT22;47065;52.898;6.992;2024-02-28T01:22:55;1.90;99.90
61201;DHT22;47065;52.898;6.992;2024-02-28T01:25:21;1.90;99.90
61201;DHT22;47065;52.898;6.992;2024-02-28T01:27:47;1.80;99.90
61201;DHT22;47065;52.898;6.992;2024-02-28T01:30:13;1.80;99.90
61201;DHT22;47065;52.898;6.992;2024-02-28T01:32:38;1.90;99.90
61201;DHT22;47065;52.898;6.992;2024-02-28T01:35:04;1.90;99.90
61201;DHT22;47065;52.898;6.992;2024-02-28T01:37:30;1.90;99.90
61201;DHT22;47065;52.898;6.992;2024-02-28T01:39:55;1.90;99.90
61201;DHT22;47065;52.898;6.992;2024-02-28T01:42:21;1.90;99.90
61201;DHT22;47065;52.898;6.992;2024-02-28T01:44:48;1.80;99.90
61201;DHT22;47065;52.898;6.992;2024-02-28T01:47:17;1.90;99.90
61201;DHT22;47065;52.898;6.992;2024-02-28T01:49:44;1.90;99.90
61201;DHT22;47065;52.898;6.992;2024-02-28T01:52:11;1.90;99.90
61201;DHT22;47065;52.898;6.992;2024-02-28T01:54:38;1.90;99.90
61201;DHT22;47065;52.898;6.992;2024-02-28T01:57:05;2.00;99.90
61201;DHT22;47065;52.898;6.992;2024-02-28T01:59:31;1.90;99.90
61201;DHT22;47065;52.898;6.992;2024-02-28T02:01:57;2.00;99.90
61201;DHT22;47065;52.898;6.992;2024-02-28T02:04:24;2.00;99.90
61201;DHT22;47065;52.898;6.992;2024-02-28T02:06:50;2.00;99.90
61201;DHT22;47065;52.898;6.992;2024-02-28T02:09:18;2.00;99.90
61201;DHT22;47065;52.898;6.992;2024-02-28T02:11:43;2.00;99.90
61201;DHT22;47065;52.898;6.992;2024-02-28T02:14:09;2.00;99.90
61201;DHT22;47065;52.898;6.992;2024-02-28T02:16:35;2.00;99.90
61201;DHT22;47065;52.898;6.992;2024-02-28T02:19:01;2.00;99.90
61201;DHT22;47065;52.898;6.992;2024-02-28T02:21:30;2.10;99.90
61201;DHT22;47065;52.898;6.992;2024-02-28T02:23:56;2.10;99.90
61201;DHT22;47065;52.898;6.992;2024-02-28T02:26:22;2.10;99.90
61201;DHT22;47065;52.898;6.992;2024-02-28T02:28:48;2.10;99.90
61201;DHT22;47065;52.898;6.992;2024-02-28T02:31:14;2.10;99.90
61201;DHT22;47065;52.898;6.992;2024-02-28T02:33:40;2.10;99.90
61201;DHT22;47065;52.898;6.992;2024-02-28T02:36:06;2.10;99.90
61201;DHT22;47065;52.898;6.992;2024-02-28T02:38:31;2.10;99.90
61201;DHT22;47065;52.898;6.992;2024-02-28T02:40:57;2.10;99.90
61201;DHT22;47065;52.898;6.992;2024-02-28T02:43:23;2.10;99.90
61201;DHT22;47065;52.898;6.992;2024-02-28T02:45:48;2.10;99.90
61201;DHT22;47065;52.898;6.992;2024-02-28T02:48:14;2.20;99.90
61201;DHT22;47065;52.898;6.992;2024-02-28T02:50:40;2.20;99.90
61201;DHT22;47065;52.898;6.992;2024-02-28T02:53:09;2.10;99.90
61201;DHT22;47065;52.898;6.992;2024-02-28T02:55:34;2.20;99.90
61201;DHT22;47065;52.898;6.992;2024-02-28T02:58:00;2.20;99.90
61201;DHT22;47065;52.898;6.992;2024-02-28T03:00:29;2.20;99.90
61201;DHT22;47065;52.898;6.992;2024-02-28T03:02:55;2.20;99.90
61201;DHT22;47065;52.898;6.992;2024-02-28T03:05:21;2.20;99.90
61201;DHT22;47065;52.898;6.992;2024-02-28T03:07:46;2.20;99.90
61201;DHT22;47065;52.898;6.992;2024-02-28T03:10:12;2.20;99.90
61201;DHT22;47065;52.898;6.992;2024-02-28T03:12:38;2.20;99.90
61201;DHT22;47065;52.898;6.992;2024-02-28T03:15:04;2.30;99.90
61201;DHT22;47065;52.898;6.992;2024-02-28T03:17:30;2.30;99.90
61201;DHT22;47065;52.898;6.992;2024-02-28T03:19:56;2.30;99.90
61201;DHT22;47065;52.898;6.992;2024-02-28T03:22:22;2.30;99.90
61201;DHT22;47065;52.898;6.992;2024-02-28T03:24:47;2.20;99.90
61201;DHT22;47065;52.898;6.992;2024-02-28T03:27:14;2.30;99.90
61201;DHT22;47065;52.898;6.992;2024-02-28T03:29:40;2.30;99.90
61201;DHT22;47065;52.898;6.992;2024-02-28T03:32:08;2.20;99.90
61201;DHT22;47065;52.898;6.992;2024-02-28T03:34:34;2.30;99.90
61201;DHT22;47065;52.898;6.992;2024-02-28T03:36:59;2.30;99.90
61201;DHT22;47065;52.898;6.992;2024-02-28T03:39:25;2.30;99.90
61201;DHT22;47065;52.898;6.992;2024-02-28T03:41:51;2.30;99.90
61201;DHT22;47065;52.898;6.992;2024-02-28T03:44:17;2.30;99.90
61201;DHT22;47065;52.898;6.992;2024-02-28T03:46:42;2.30;99.90
61201;DHT22;47065;52.898;6.992;2024-02-28T03:49:08;2.40;99.90
61201;DHT22;47065;52.898;6.992;2024-02-28T03:51:42;2.40;99.90
61201;DHT22;47065;52.898;6.992;2024-02-28T03:54:08;2.40;99.90
61201;DHT22;47065;52.898;6.992;2024-02-28T03:56:34;2.40;99.90
61201;DHT22;47065;52.898;6.992;2024-02-28T03:59:00;2.40;99.90
61201;DHT22;47065;52.898;6.992;2024-02-28T04:01:26;2.40;99.90
61201;DHT22;47065;52.898;6.992;2024-02-28T04:03:52;2.40;99.90
61201;DHT22;47065;52.898;6.992;2024-02-28T04:06:18;2.40;99.90
61201;DHT22;47065;52.898;6.992;2024-02-28T04:08:43;2.30;99.90
61201;DHT22;47065;52.898;6.992;2024-02-28T04:11:09;2.40;99.90
61201;DHT22;47065;52.898;6.992;2024-02-28T04:13:35;2.40;99.90
61201;DHT22;47065;52.898;6.992;2024-02-28T04:16:02;2.40;99.90
61201;DHT22;47065;52.898;6.992;2024-02-28T04:18:28;2.40;99.90
61201;DHT22;47065;52.898;6.992;2024-02-28T04:20:55;2.50;99.90
61201;DHT22;47065;52.898;6.992;2024-02-28T04:23:23;2.40;99.90
61201;DHT22;47065;52.898;6.992;2024-02-28T04:25:49;2.40;99.90
61201;DHT22;47065;52.898;6.992;2024-02-28T04:28:14;2.40;99.90
61201;DHT22;47065;52.898;6.992;2024-02-28T04:30:40;2.30;99.90
61201;DHT22;47065;52.898;6.992;2024-02-28T04:33:06;2.40;99.90
61201;DHT22;47065;52.898;6.992;2024-02-28T04:35:31;2.30;99.90
61201;DHT22;47065;52.898;6.992;2024-02-28T04:37:57;2.40;99.90
61201;DHT22;47065;52.898;6.992;2024-02-28T04:40:23;2.30;99.90
61201;DHT22;47065;52.898;6.992;2024-02-28T04:42:48;2.30;99.90
61201;DHT22;47065;52.898;6.992;2024-02-28T04:45:14;2.40;99.90
61201;DHT22;47065;52.898;6.992;2024-02-28T04:47:40;2.40;99.90
61201;DHT22;47065;52.898;6.992;2024-02-28T04:50:06;2.30;99.90
61201;DHT22;47065;52.898;6.992;2024-02-28T04:52:32;2.40;99.90
61201;DHT22;47065;52.898;6.992;2024-02-28T04:54:58;2.40;99.90
61201;DHT22;47065;52.898;6.992;2024-02-28T04:57:24;2.30;99.90
61201;DHT22;47065;52.898;6.992;2024-02-28T04:59:49;2.40;99.90
61201;DHT22;47065;52.898;6.992;2024-02-28T05:02:15;2.40;99.90
61201;DHT22;47065;52.898;6.992;2024-02-28T05:04:42;2.40;99.90
61201;DHT22;47065;52.898;6.992;2024-02-28T05:07:08;2.40;99.90
61201;DHT22;47065;52.898;6.992;2024-02-28T05:09:34;2.40;99.90
61201;DHT22;47065;52.898;6.992;2024-02-28T05:12:03;2.40;99.90
61201;DHT22;47065;52.898;6.992;2024-02-28T05:14:29;2.40;99.90
61201;DHT22;47065;52.898;6.992;2024-02-28T05:16:55;2.40;99.90
61201;DHT22;47065;52.898;6.992;2024-02-28T05:19:21;2.40;99.90
61201;DHT22;47065;52.898;6.992;2024-02-28T05:21:47;2.40;99.90
61201;DHT22;47065;52.898;6.992;2024-02-28T05:24:13;2.40;99.90
61201;DHT22;47065;52.898;6.992;2024-02-28T05:26:39;2.40;99.90
61201;DHT22;47065;52.898;6.992;2024-02-28T05:29:05;2.50;99.90
61201;DHT22;47065;52.898;6.992;2024-02-28T05:31:32;2.40;99.90
61201;DHT22;47065;52.898;6.992;2024-02-28T05:33:59;2.40;99.90
61201;DHT22;47065;52.898;6.992;2024-02-28T05:36:29;2.50;99.90
61201;DHT22;47065;52.898;6.992;2024-02-28T05:38:56;2.50;99.90
61201;DHT22;47065;52.898;6.992;2024-02-28T05:41:22;2.50;99.90
61201;DHT22;47065;52.898;6.992;2024-02-28T05:43:49;2.50;99.90
61201;DHT22;47065;52.898;6.992;2024-02-28T05:46:15;2.50;99.90
61201;DHT22;47065;52.898;6.992;2024-02-28T05:48:42;2.50;99.90
61201;DHT22;47065;52.898;6.992;2024-02-28T05:51:08;2.60;99.90
61201;DHT22;47065;52.898;6.992;2024-02-28T05:53:34;2.60;99.90
61201;DHT22;47065;52.898;6.992;2024-02-28T05:56:04;2.60;99.90
61201;DHT22;47065;52.898;6.992;2024-02-28T05:58:30;2.60;99.90
61201;DHT22;47065;52.898;6.992;2024-02-28T06:00:57;2.60;99.90
61201;DHT22;47065;52.898;6.992;2024-02-28T06:03:22;2.60;99.90
61201;DHT22;47065;52.898;6.992;2024-02-28T06:05:48;2.70;99.90
61201;DHT22;47065;52.898;6.992;2024-02-28T06:08:14;2.70;99.90
61201;DHT22;47065;52.898;6.992;2024-02-28T06:10:40;2.70;99.90
61201;DHT22;47065;52.898;6.992;2024-02-28T06:13:08;2.70;99.90
61201;DHT22;47065;52.898;6.992;2024-02-28T06:15:33;2.70;99.90
61201;DHT22;47065;52.898;6.992;2024-02-28T06:17:59;2.70;99.90
61201;DHT22;47065;52.898;6.992;2024-02-28T06:20:26;2.70;99.90
61201;DHT22;47065;52.898;6.992;2024-02-28T06:22:52;2.70;99.90
61201;DHT22;47065;52.898;6.992;2024-02-28T06:25:18;2.70;99.90
61201;DHT22;47065;52.898;6.992;2024-02-28T06:27:45;2.70;99.90
61201;DHT22;47065;52.898;6.992;2024-02-28T06:30:12;2.70;99.90
61201;DHT22;47065;52.898;6.992;2024-02-28T06:32:40;2.80;99.90
61201;DHT22;47065;52.898;6.992;2024-02-28T06:35:09;2.80;99.90
61201;DHT22;47065;52.898;6.992;2024-02-28T06:37:35;2.70;99.90
61201;DHT22;47065;52.898;6.992;2024-02-28T06:40:02;2.80;99.90
61201;DHT22;47065;52.898;6.992;2024-02-28T06:42:29;2.70;99.90
61201;DHT22;47065;52.898;6.992;2024-02-28T06:44:55;2.80;99.90
61201;DHT22;47065;52.898;6.992;2024-02-28T06:47:21;2.80;99.90
61201;DHT22;47065;52.898;6.992;2024-02-28T06:49:47;2.80;99.90
61201;DHT22;47065;52.898;6.992;2024-02-28T06:52:15;2.80;99.90
61201;DHT22;47065;52.898;6.992;2024-02-28T06:54:41;2.90;99.90
61201;DHT22;47065;52.898;6.992;2024-02-28T06:57:07;2.90;99.90
61201;DHT22;47065;52.898;6.992;2024-02-28T06:59:32;2.80;99.90
61201;DHT22;47065;52.898;6.992;2024-02-28T07:01:58;2.80;99.90
61201;DHT22;47065;52.898;6.992;2024-02-28T07:04:24;2.80;99.90
61201;DHT22;47065;52.898;6.992;2024-02-28T07:06:50;2.90;99.90
61201;DHT22;47065;52.898;6.992;2024-02-28T07:09:16;2.90;99.90
61201;DHT22;47065;52.898;6.992;2024-02-28T07:11:41;2.90;99.90
61201;DHT22;47065;52.898;6.992;2024-02-28T07:14:08;2.90;99.90
61201;DHT22;47065;52.898;6.992;2024-02-28T07:16:33;2.90;99.90
61201;DHT22;47065;52.898;6.992;2024-02-28T07:19:00;2.90;99.90
61201;DHT22;47065;52.898;6.992;2024-02-28T07:21:26;2.90;99.90
61201;DHT22;47065;52.898;6.992;2024-02-28T07:23:52;3.00;99.90
61201;DHT22;47065;52.898;6.992;2024-02-28T07:26:18;3.00;99.90
61201;DHT22;47065;52.898;6.992;2024-02-28T07:28:43;3.00;99.90
61201;DHT22;47065;52.898;6.992;2024-02-28T07:31:18;3.00;99.90
61201;DHT22;47065;52.898;6.992;2024-02-28T07:33:44;3.00;99.90
61201;DHT22;47065;52.898;6.992;2024-02-28T07:36:10;3.00;99.90
61201;DHT22;47065;52.898;6.992;2024-02-28T07:38:36;3.10;99.90
61201;DHT22;47065;52.898;6.992;2024-02-28T07:41:02;3.10;99.90
61201;DHT22;47065;52.898;6.992;2024-02-28T07:43:28;3.10;99.90
61201;DHT22;47065;52.898;6.992;2024-02-28T07:45:54;3.10;99.90
61201;DHT22;47065;52.898;6.992;2024-02-28T07:48:20;3.20;99.90
61201;DHT22;47065;52.898;6.992;2024-02-28T07:50:48;3.20;99.90
61201;DHT22;47065;52.898;6.992;2024-02-28T07:53:17;3.10;99.90
61201;DHT22;47065;52.898;6.992;2024-02-28T07:55:43;3.20;99.90
61201;DHT22;47065;52.898;6.992;2024-02-28T07:58:08;3.30;99.90
61201;DHT22;47065;52.898;6.992;2024-02-28T08:00:35;3.30;99.90
61201;DHT22;47065;52.898;6.992;2024-02-28T08:03:01;3.30;99.90
61201;DHT22;47065;52.898;6.992;2024-02-28T08:05:27;3.30;99.90
61201;DHT22;47065;52.898;6.992;2024-02-28T08:07:52;3.40;99.90
61201;DHT22;47065;52.898;6.992;2024-02-28T08:10:18;3.40;99.90
61201;DHT22;47065;52.898;6.992;2024-02-28T08:12:44;3.40;99.90
61201;DHT22;47065;52.898;6.992;2024-02-28T08:15:10;3.40;99.90
61201;DHT22;47065;52.898;6.992;2024-02-28T08:17:36;3.40;99.90
61201;DHT22;47065;52.898;6.992;2024-02-28T08:20:05;3.40;99.90
61201;DHT22;47065;52.898;6.992;2024-02-28T08:22:31;3.50;99.90
61201;DHT22;47065;52.898;6.992;2024-02-28T08:24:57;3.60;99.90
61201;DHT22;47065;52.898;6.992;2024-02-28T08:27:22;3.50;99.90
61201;DHT22;47065;52.898;6.992;2024-02-28T08:29:49;3.60;99.90
61201;DHT22;47065;52.898;6.992;2024-02-28T08:32:17;3.60;99.90
61201;DHT22;47065;52.898;6.992;2024-02-28T08:34:46;3.60;99.90
61201;DHT22;47065;52.898;6.992;2024-02-28T08:37:12;3.70;99.90
61201;DHT22;47065;52.898;6.992;2024-02-28T08:39:38;3.80;99.90
61201;DHT22;47065;52.898;6.992;2024-02-28T08:42:04;3.80;99.90
61201;DHT22;47065;52.898;6.992;2024-02-28T08:44:30;3.90;99.90
61201;DHT22;47065;52.898;6.992;2024-02-28T08:46:56;4.00;99.90
61201;DHT22;47065;52.898;6.992;2024-02-28T08:49:22;4.00;99.90
61201;DHT22;47065;52.898;6.992;2024-02-28T08:51:48;4.10;99.90
61201;DHT22;47065;52.898;6.992;2024-02-28T08:54:13;4.20;99.90
61201;DHT22;47065;52.898;6.992;2024-02-28T08:56:39;4.20;99.90
61201;DHT22;47065;52.898;6.992;2024-02-28T08:59:07;4.30;99.90
61201;DHT22;47065;52.898;6.992;2024-02-28T09:01:33;4.30;99.90
61201;DHT22;47065;52.898;6.992;2024-02-28T09:04:00;4.30;99.90
61201;DHT22;47065;52.898;6.992;2024-02-28T09:06:25;4.30;99.90
61201;DHT22;47065;52.898;6.992;2024-02-28T09:08:51;4.30;99.90
61201;DHT22;47065;52.898;6.992;2024-02-28T09:11:17;4.40;99.90
61201;DHT22;47065;52.898;6.992;2024-02-28T09:13:42;4.30;99.90
61201;DHT22;47065;52.898;6.992;2024-02-28T09:16:11;4.40;99.90
61201;DHT22;47065;52.898;6.992;2024-02-28T09:18:37;4.40;99.90
61201;DHT22;47065;52.898;6.992;2024-02-28T09:21:03;4.40;99.90
61201;DHT22;47065;52.898;6.992;2024-02-28T09:23:29;4.40;99.90
61201;DHT22;47065;52.898;6.992;2024-02-28T09:25:56;4.50;99.90
61201;DHT22;47065;52.898;6.992;2024-02-28T09:28:24;4.50;99.90
61201;DHT22;47065;52.898;6.992;2024-02-28T09:30:49;4.50;99.90
61201;DHT22;47065;52.898;6.992;2024-02-28T09:33:16;4.50;99.90
61201;DHT22;47065;52.898;6.992;2024-02-28T09:35:45;4.50;99.90
61201;DHT22;47065;52.898;6.992;2024-02-28T09:38:11;4.50;99.90
61201;DHT22;47065;52.898;6.992;2024-02-28T09:40:36;4.60;99.90
61201;DHT22;47065;52.898;6.992;2024-02-28T09:43:03;4.50;99.90
61201;DHT22;47065;52.898;6.992;2024-02-28T09:45:30;4.60;99.90
61201;DHT22;47065;52.898;6.992;2024-02-28T09:48:01;4.60;99.90
61201;DHT22;47065;52.898;6.992;2024-02-28T09:50:29;4.60;99.90
61201;DHT22;47065;52.898;6.992;2024-02-28T09:52:55;4.70;99.90
61201;DHT22;47065;52.898;6.992;2024-02-28T09:55:21;4.70;99.90
61201;DHT22;47065;52.898;6.992;2024-02-28T09:57:48;4.70;99.90
61201;DHT22;47065;52.898;6.992;2024-02-28T10:00:15;4.80;99.90
61201;DHT22;47065;52.898;6.992;2024-02-28T10:02:43;4.80;99.90
61201;DHT22;47065;52.898;6.992;2024-02-28T10:05:10;4.80;99.90
61201;DHT22;47065;52.898;6.992;2024-02-28T10:07:36;4.90;99.90
61201;DHT22;47065;52.898;6.992;2024-02-28T10:10:01;4.90;99.90
61201;DHT22;47065;52.898;6.992;2024-02-28T10:12:29;5.00;99.90
61201;DHT22;47065;52.898;6.992;2024-02-28T10:14:55;5.10;99.90
61201;DHT22;47065;52.898;6.992;2024-02-28T10:17:20;5.20;99.90
61201;DHT22;47065;52.898;6.992;2024-02-28T10:19:46;5.20;99.90
61201;DHT22;47065;52.898;6.992;2024-02-28T10:22:15;5.30;99.90
61201;DHT22;47065;52.898;6.992;2024-02-28T10:24:40;5.40;99.90
61201;DHT22;47065;52.898;6.992;2024-02-28T10:27:06;5.50;99.90
61201;DHT22;47065;52.898;6.992;2024-02-28T10:29:31;5.50;99.90
61201;DHT22;47065;52.898;6.992;2024-02-28T10:32:00;5.60;99.90
61201;DHT22;47065;52.898;6.992;2024-02-28T10:34:27;5.70;99.90
61201;DHT22;47065;52.898;6.992;2024-02-28T10:36:52;5.80;99.90
61201;DHT22;47065;52.898;6.992;2024-02-28T10:39:19;6.00;99.90
61201;DHT22;47065;52.898;6.992;2024-02-28T10:41:46;6.10;99.90
61201;DHT22;47065;52.898;6.992;2024-02-28T10:44:13;6.20;99.90
61201;DHT22;47065;52.898;6.992;2024-02-28T10:46:41;6.20;99.90
61201;DHT22;47065;52.898;6.992;2024-02-28T10:49:09;6.20;99.90
61201;DHT22;47065;52.898;6.992;2024-02-28T10:51:35;6.20;99.90
61201;DHT22;47065;52.898;6.992;2024-02-28T10:54:09;6.30;99.90
61201;DHT22;47065;52.898;6.992;2024-02-28T10:56:37;6.30;99.90
61201;DHT22;47065;52.898;6.992;2024-02-28T10:59:06;6.20;99.90
61201;DHT22;47065;52.898;6.992;2024-02-28T11:01:34;6.20;99.90
61201;DHT22;47065;52.898;6.992;2024-02-28T11:04:03;6.20;99.90
61201;DHT22;47065;52.898;6.992;2024-02-28T11:06:30;6.20;99.90
61201;DHT22;47065;52.898;6.992;2024-02-28T11:08:59;6.20;99.90
61201;DHT22;47065;52.898;6.992;2024-02-28T11:11:24;6.20;99.90
61201;DHT22;47065;52.898;6.992;2024-02-28T11:13:56;6.20;99.90
61201;DHT22;47065;52.898;6.992;2024-02-28T11:16:32;6.20;99.90
61201;DHT22;47065;52.898;6.992;2024-02-28T11:18:59;6.20;99.90
61201;DHT22;47065;52.898;6.992;2024-02-28T11:21:26;6.20;99.90
61201;DHT22;47065;52.898;6.992;2024-02-28T11:24:00;6.30;99.90
61201;DHT22;47065;52.898;6.992;2024-02-28T11:26:29;6.30;99.90
61201;DHT22;47065;52.898;6.992;2024-02-28T11:28:55;6.40;99.90
61201;DHT22;47065;52.898;6.992;2024-02-28T11:31:21;6.40;99.90
61201;DHT22;47065;52.898;6.992;2024-02-28T11:33:47;6.50;99.90
61201;DHT22;47065;52.898;6.992;2024-02-28T11:36:13;6.60;99.90
61201;DHT22;47065;52.898;6.992;2024-02-28T11:38:40;6.60;99.90
61201;DHT22;47065;52.898;6.992;2024-02-28T11:41:06;6.70;99.90
61201;DHT22;47065;52.898;6.992;2024-02-28T11:43:32;6.80;99.90
61201;DHT22;47065;52.898;6.992;2024-02-28T11:46:00;6.80;99.90
61201;DHT22;47065;52.898;6.992;2024-02-28T11:48:26;6.90;99.90
61201;DHT22;47065;52.898;6.992;2024-02-28T11:50:54;7.00;99.90
61201;DHT22;47065;52.898;6.992;2024-02-28T11:53:20;7.10;99.90
61201;DHT22;47065;52.898;6.992;2024-02-28T11:55:46;7.20;99.90
61201;DHT22;47065;52.898;6.992;2024-02-28T11:58:13;7.20;99.90
61201;DHT22;47065;52.898;6.992;2024-02-28T12:00:48;7.30;99.90
61201;DHT22;47065;52.898;6.992;2024-02-28T12:03:14;7.30;99.90
61201;DHT22;47065;52.898;6.992;2024-02-28T12:05:43;7.30;99.90
61201;DHT22;47065;52.898;6.992;2024-02-28T12:08:10;7.40;99.90
61201;DHT22;47065;52.898;6.992;2024-02-28T12:10:36;7.40;99.90
61201;DHT22;47065;52.898;6.992;2024-02-28T12:13:04;7.50;99.90
61201;DHT22;47065;52.898;6.992;2024-02-28T12:15:30;7.50;99.90
61201;DHT22;47065;52.898;6.992;2024-02-28T12:17:56;7.60;99.90
61201;DHT22;47065;52.898;6.992;2024-02-28T12:20:23;7.60;99.90
61201;DHT22;47065;52.898;6.992;2024-02-28T12:22:50;7.60;99.90
61201;DHT22;47065;52.898;6.992;2024-02-28T12:25:16;7.60;99.90
61201;DHT22;47065;52.898;6.992;2024-02-28T12:27:43;7.60;99.90
61201;DHT22;47065;52.898;6.992;2024-02-28T12:30:09;7.60;99.90
61201;DHT22;47065;52.898;6.992;2024-02-28T12:32:35;7.60;99.90
61201;DHT22;47065;52.898;6.992;2024-02-28T12:35:01;7.60;99.90
61201;DHT22;47065;52.898;6.992;2024-02-28T12:37:27;7.60;99.90
61201;DHT22;47065;52.898;6.992;2024-02-28T12:39:53;7.60;99.90
61201;DHT22;47065;52.898;6.992;2024-02-28T12:42:19;7.60;99.90
61201;DHT22;47065;52.898;6.992;2024-02-28T12:44:45;7.70;99.90
61201;DHT22;47065;52.898;6.992;2024-02-28T12:47:12;7.70;99.90
61201;DHT22;47065;52.898;6.992;2024-02-28T12:49:38;7.70;99.90
61201;DHT22;47065;52.898;6.992;2024-02-28T12:52:07;7.70;99.90
61201;DHT22;47065;52.898;6.992;2024-02-28T12:54:32;7.70;99.90
61201;DHT22;47065;52.898;6.992;2024-02-28T12:56:58;7.70;99.90
61201;DHT22;47065;52.898;6.992;2024-02-28T12:59:28;7.70;99.90
61201;DHT22;47065;52.898;6.992;2024-02-28T13:01:53;7.80;99.90
61201;DHT22;47065;52.898;6.992;2024-02-28T13:04:19;7.80;99.90
61201;DHT22;47065;52.898;6.992;2024-02-28T13:06:45;7.70;99.90
61201;DHT22;47065;52.898;6.992;2024-02-28T13:09:10;7.70;99.90
61201;DHT22;47065;52.898;6.992;2024-02-28T13:11:38;7.70;99.90
61201;DHT22;47065;52.898;6.992;2024-02-28T13:14:05;7.70;99.90
61201;DHT22;47065;52.898;6.992;2024-02-28T13:16:30;7.70;99.90
61201;DHT22;47065;52.898;6.992;2024-02-28T13:18:56;7.70;99.90
61201;DHT22;47065;52.898;6.992;2024-02-28T13:21:22;7.70;99.90
61201;DHT22;47065;52.898;6.992;2024-02-28T13:23:48;7.60;99.90
61201;DHT22;47065;52.898;6.992;2024-02-28T13:26:15;7.60;99.90
61201;DHT22;47065;52.898;6.992;2024-02-28T13:28:46;7.60;99.90
61201;DHT22;47065;52.898;6.992;2024-02-28T13:31:13;7.60;99.90
61201;DHT22;47065;52.898;6.992;2024-02-28T13:33:39;7.70;99.90
61201;DHT22;47065;52.898;6.992;2024-02-28T13:36:07;7.70;99.90
61201;DHT22;47065;52.898;6.992;2024-02-28T13:38:32;7.70;99.90
61201;DHT22;47065;52.898;6.992;2024-02-28T13:40:58;7.70;99.90
61201;DHT22;47065;52.898;6.992;2024-02-28T13:43:27;7.70;99.90
61201;DHT22;47065;52.898;6.992;2024-02-28T13:45:53;7.70;99.90
61201;DHT22;47065;52.898;6.992;2024-02-28T13:48:29;7.70;99.90
61201;DHT22;47065;52.898;6.992;2024-02-28T13:50:56;7.70;99.90
61201;DHT22;47065;52.898;6.992;2024-02-28T13:53:22;7.60;99.90
61201;DHT22;47065;52.898;6.992;2024-02-28T13:55:50;7.70;99.90
61201;DHT22;47065;52.898;6.992;2024-02-28T13:58:16;7.60;99.90
61201;DHT22;47065;52.898;6.992;2024-02-28T14:00:45;7.70;99.90
61201;DHT22;47065;52.898;6.992;2024-02-28T14:03:12;7.60;99.90
61201;DHT22;47065;52.898;6.992;2024-02-28T14:05:41;7.60;99.90
61201;DHT22;47065;52.898;6.992;2024-02-28T14:08:07;7.60;99.90
61201;DHT22;47065;52.898;6.992;2024-02-28T14:10:34;7.60;99.90
61201;DHT22;47065;52.898;6.992;2024-02-28T14:13:03;7.60;99.90
61201;DHT22;47065;52.898;6.992;2024-02-28T14:15:28;7.60;99.90
61201;DHT22;47065;52.898;6.992;2024-02-28T14:17:54;7.60;99.90
61201;DHT22;47065;52.898;6.992;2024-02-28T14:20:20;7.60;99.90
61201;DHT22;47065;52.898;6.992;2024-02-28T14:22:46;7.60;99.90
61201;DHT22;47065;52.898;6.992;2024-02-28T14:25:16;7.70;99.90
61201;DHT22;47065;52.898;6.992;2024-02-28T14:27:44;7.70;99.90
61201;DHT22;47065;52.898;6.992;2024-02-28T14:30:10;7.70;99.90
61201;DHT22;47065;52.898;6.992;2024-02-28T14:32:37;7.70;99.90
61201;DHT22;47065;52.898;6.992;2024-02-28T14:35:08;7.70;99.90
61201;DHT22;47065;52.898;6.992;2024-02-28T14:37:37;7.70;99.90
61201;DHT22;47065;52.898;6.992;2024-02-28T14:40:04;7.70;99.90
61201;DHT22;47065;52.898;6.992;2024-02-28T14:42:38;7.70;99.90
61201;DHT22;47065;52.898;6.992;2024-02-28T14:45:11;7.70;99.90
61201;DHT22;47065;52.898;6.992;2024-02-28T14:47:41;7.70;99.90
61201;DHT22;47065;52.898;6.992;2024-02-28T14:50:10;7.80;99.90
61201;DHT22;47065;52.898;6.992;2024-02-28T14:52:37;7.70;99.90
61201;DHT22;47065;52.898;6.992;2024-02-28T14:55:06;7.70;99.90
61201;DHT22;47065;52.898;6.992;2024-02-28T14:57:33;7.70;99.90
61201;DHT22;47065;52.898;6.992;2024-02-28T15:00:01;7.80;99.90
61201;DHT22;47065;52.898;6.992;2024-02-28T15:02:33;7.70;99.90
61201;DHT22;47065;52.898;6.992;2024-02-28T15:04:59;7.70;99.90
61201;DHT22;47065;52.898;6.992;2024-02-28T15:07:25;7.70;99.90
61201;DHT22;47065;52.898;6.992;2024-02-28T15:09:51;7.70;99.90
61201;DHT22;47065;52.898;6.992;2024-02-28T15:12:17;7.70;99.90
61201;DHT22;47065;52.898;6.992;2024-02-28T15:14:43;7.70;99.90
61201;DHT22;47065;52.898;6.992;2024-02-28T15:17:08;7.70;99.90
61201;DHT22;47065;52.898;6.992;2024-02-28T15:19:34;7.70;99.90
61201;DHT22;47065;52.898;6.992;2024-02-28T15:21:59;7.70;99.90
61201;DHT22;47065;52.898;6.992;2024-02-28T15:24:25;7.70;99.90
61201;DHT22;47065;52.898;6.992;2024-02-28T15:26:52;7.80;99.90
61201;DHT22;47065;52.898;6.992;2024-02-28T15:29:18;7.70;99.90
61201;DHT22;47065;52.898;6.992;2024-02-28T15:31:44;7.70;99.90
61201;DHT22;47065;52.898;6.992;2024-02-28T15:34:10;7.80;99.90
61201;DHT22;47065;52.898;6.992;2024-02-28T15:36:36;7.70;99.90
61201;DHT22;47065;52.898;6.992;2024-02-28T15:39:02;7.70;99.90